Time;durP1;ratioP1;P1;durP2;ratioP2;P2;SDS_P1;SDS_P2;PMS_P1;PMS_P2;Temp;Humidity;BMP_temperature;BMP_pressure;BME280_temperature;BME280_humidity;BME280_pressure;Samples;Min_cycle;Max_cycle;Signal;HPM_P1;HPM_P2
2023/08/04 00:00:15;;;;;;;4.72;0.73;;;;;;;13.22;100.00;98293.91;5021907;28;20029;-50
2023/08/04 00:02:41;;;;;;;3.38;1.75;;;;;;;13.13;100.00;98292.59;5033109;28;20017;-51
2023/08/04 00:05:07;;;;;;;4.22;1.02;;;;;;;13.04;100.00;98297.53;5025932;28;20486;-52
2023/08/04 00:07:34;;;;;;;8.60;1.00;;;;;;;12.97;100.00;98296.81;5022400;28;20037;-52
2023/08/04 00:09:59;;;;;;;8.73;1.10;;;;;;;12.89;100.00;98311.53;5029177;28;20108;-51
2023/08/04 00:12:25;;;;;;;3.80;0.88;;;;;;;12.83;100.00;98311.63;5032818;28;20121;-51
2023/08/04 00:14:50;;;;;;;1.08;0.63;;;;;;;12.79;100.00;98305.84;5016313;28;20491;-51
2023/08/04 00:17:16;;;;;;;1.50;1.00;;;;;;;12.78;100.00;98315.00;5024355;28;20036;-51
2023/08/04 00:19:42;;;;;;;1.83;0.90;;;;;;;12.74;100.00;98324.69;5019981;28;20488;-51
2023/08/04 00:22:07;;;;;;;4.95;1.00;;;;;;;12.72;100.00;98321.38;5025678;28;20131;-51
2023/08/04 00:24:33;;;;;;;6.90;1.52;;;;;;;12.68;100.00;98320.16;5021839;28;20112;-52
2023/08/04 00:27:00;;;;;;;4.10;0.95;;;;;;;12.59;100.00;98318.84;5021816;28;20025;-51
2023/08/04 00:29:25;;;;;;;5.75;1.20;;;;;;;12.59;100.00;98318.84;5026382;28;20028;-52
2023/08/04 00:31:51;;;;;;;4.43;1.05;;;;;;;12.60;100.00;98317.75;5023129;28;20022;-52
2023/08/04 00:34:16;;;;;;;5.45;1.33;;;;;;;12.55;100.00;98314.91;5024232;28;20424;-52
2023/08/04 00:36:42;;;;;;;1.95;0.60;;;;;;;12.56;100.00;98319.28;5020392;28;20108;-51
2023/08/04 00:39:07;;;;;;;2.38;0.82;;;;;;;12.53;100.00;98322.47;5024259;28;20029;-52
2023/08/04 00:41:33;;;;;;;2.30;1.15;;;;;;;12.54;100.00;98326.81;5025683;28;20497;-51
2023/08/04 00:43:58;;;;;;;4.20;0.93;;;;;;;12.55;100.00;98314.91;5020036;28;20027;-52
2023/08/04 00:46:26;;;;;;;3.30;0.90;;;;;;;12.68;100.00;98320.16;5034430;28;20036;-52
2023/08/04 00:48:51;;;;;;;3.50;0.70;;;;;;;12.75;100.00;98315.47;5020618;28;20030;-51
2023/08/04 00:51:16;;;;;;;4.63;1.10;;;;;;;12.85;100.00;98313.06;5025730;28;20541;-49
2023/08/04 00:53:43;;;;;;;2.95;0.90;;;;;;;12.94;100.00;98311.69;5021163;28;20033;-50
2023/08/04 00:56:08;;;;;;;1.40;0.80;;;;;;;12.96;100.00;98318.75;5018622;28;20052;-52
2023/08/04 00:58:33;;;;;;;1.55;0.82;;;;;;;12.87;100.00;98302.78;5027105;28;20540;-50
2023/08/04 01:01:00;;;;;;;1.25;0.75;;;;;;;12.74;100.00;98300.25;5030925;28;20041;-50
2023/08/04 01:03:26;;;;;;;3.03;0.75;;;;;;;12.79;100.00;98310.44;5023880;28;20113;-50
2023/08/04 01:06:04;;;;;;;3.45;0.93;;;;;;;12.72;100.00;98307.81;5016353;28;20052;-50
2023/08/04 01:08:34;;;;;;;4.10;0.85;;;;;;;12.74;100.00;98313.00;5017656;28;20040;-50
2023/08/04 01:11:13;;;;;;;2.95;1.20;;;;;;;12.79;100.00;98316.69;5023428;28;20051;-50
2023/08/04 01:13:40;;;;;;;5.00;1.00;;;;;;;12.83;100.00;98326.03;5016434;28;20025;-50
2023/08/04 01:16:07;;;;;;;5.10;1.05;;;;;;;12.87;100.00;98321.78;5028258;28;20021;-50
2023/08/04 01:18:32;;;;;;;2.05;0.80;;;;;;;12.90;100.00;98321.34;5033881;28;20344;-50
2023/08/04 01:21:05;;;;;;;2.83;1.08;;;;;;;12.93;100.00;98311.91;5029245;28;20032;-50
2023/08/04 01:23:31;;;;;;;2.92;0.90;;;;;;;12.93;100.00;98309.19;5028885;28;20424;-50
2023/08/04 01:25:57;;;;;;;2.22;1.05;;;;;;;12.93;100.00;98322.75;5025589;28;20461;-50
2023/08/04 01:28:23;;;;;;;4.38;1.10;;;;;;;12.90;100.00;98324.03;5023740;28;20104;-50
2023/08/04 01:30:53;;;;;;;7.53;0.85;;;;;;;12.88;100.00;98311.75;5027833;28;20027;-50
2023/08/04 01:33:18;;;;;;;3.30;0.77;;;;;;;12.92;100.00;98318.41;5021988;28;20104;-50
2023/08/04 01:35:44;;;;;;;2.28;0.90;;;;;;;12.96;100.00;98311.44;5026296;28;20022;-50
2023/08/04 01:38:10;;;;;;;3.63;0.82;;;;;;;12.97;100.00;98307.69;5014582;28;20022;-50
2023/08/04 01:40:35;;;;;;;1.83;0.70;;;;;;;12.98;100.00;98311.22;5024332;28;20025;-50
2023/08/04 01:43:03;;;;;;;2.53;0.57;;;;;;;12.96;100.00;98305.19;5020073;28;20083;-50
2023/08/04 01:45:28;;;;;;;2.67;0.77;;;;;;;12.92;100.00;98302.94;5022705;28;20033;-50
2023/08/04 01:47:53;;;;;;;3.33;1.10;;;;;;;12.94;100.00;98287.25;5022164;28;20476;-51
2023/08/04 01:50:19;;;;;;;3.15;0.82;;;;;;;12.82;100.00;98297.22;5021920;28;20055;-50
2023/08/04 01:52:44;;;;;;;3.05;0.70;;;;;;;12.74;100.00;98297.56;5028912;28;20029;-50
2023/08/04 01:55:09;;;;;;;2.00;0.80;;;;;;;12.60;100.00;98302.34;5021284;28;20021;-50
2023/08/04 01:57:35;;;;;;;1.77;0.93;;;;;;;12.54;100.00;98305.94;5032345;28;20025;-52
2023/08/04 02:00:00;;;;;;;4.13;1.13;;;;;;;12.49;100.00;98306.63;5033181;28;20074;-51
2023/08/04 02:02:25;;;;;;;1.27;0.82;;;;;;;12.45;100.00;98310.03;5020399;28;20120;-52
2023/08/04 02:04:51;;;;;;;1.65;0.80;;;;;;;12.49;100.00;98311.22;5016555;28;20112;-52
2023/08/04 02:07:16;;;;;;;2.92;1.00;;;;;;;12.68;100.00;98314.72;4998228;28;20030;-52
2023/08/04 02:09:42;;;;;;;5.55;0.65;;;;;;;12.66;100.00;98316.88;5021223;28;20025;-52
2023/08/04 02:12:08;;;;;;;2.80;1.00;;;;;;;12.81;100.00;98316.44;5021399;28;20132;-52
2023/08/04 02:14:33;;;;;;;1.23;0.70;;;;;;;12.74;100.00;98308.41;5019084;28;20048;-52
2023/08/04 02:16:59;;;;;;;1.70;0.90;;;;;;;12.68;100.00;98309.31;5021869;28;20029;-52
2023/08/04 02:19:24;;;;;;;1.88;0.80;;;;;;;12.70;100.00;98307.19;5023967;28;20377;-51
2023/08/04 02:21:50;;;;;;;3.40;1.17;;;;;;;12.71;100.00;98309.69;5024057;28;20030;-51
2023/08/04 02:24:15;;;;;;;3.45;1.13;;;;;;;12.70;100.00;98297.16;5019800;28;20029;-51
2023/08/04 02:26:41;;;;;;;3.55;1.02;;;;;;;12.74;100.00;98302.16;5026021;28;20061;-52
2023/08/04 02:29:06;;;;;;;4.85;0.75;;;;;;;12.75;100.00;98303.81;5028999;28;22143;-52
2023/08/04 02:31:32;;;;;;;2.42;1.15;;;;;;;12.77;100.00;98312.56;5024626;28;21390;-52
2023/08/04 02:33:59;;;;;;;2.28;0.98;;;;;;;12.81;100.00;98313.72;5031412;28;20083;-51
2023/08/04 02:36:24;;;;;;;0.95;0.57;;;;;;;12.87;100.00;98312.84;5022629;28;20045;-52
2023/08/04 02:38:50;;;;;;;1.67;0.93;;;;;;;13.00;100.00;98314.53;5025312;28;20460;-52
2023/08/04 02:41:16;;;;;;;1.30;1.08;;;;;;;13.09;100.00;98318.56;5026229;28;20033;-51
2023/08/04 02:43:41;;;;;;;5.60;1.17;;;;;;;13.14;100.00;98311.38;5038756;28;20052;-51
2023/08/04 02:46:10;;;;;;;2.63;0.80;;;;;;;13.42;100.00;98312.66;5032026;28;20465;-52
2023/08/04 02:48:35;;;;;;;1.88;0.70;;;;;;;13.40;100.00;98303.91;5025265;28;20041;-51
2023/08/04 02:51:06;;;;;;;2.65;0.68;;;;;;;13.36;100.00;98303.56;5021370;28;20060;-51
2023/08/04 02:53:33;;;;;;;4.43;0.90;;;;;;;13.30;100.00;98304.47;5025375;28;20028;-51
2023/08/04 02:55:59;;;;;;;3.10;0.85;;;;;;;13.26;100.00;98297.00;5020649;28;20052;-52
2023/08/04 02:58:26;;;;;;;4.32;1.15;;;;;;;13.23;100.00;98298.31;5018597;28;20068;-50
2023/08/04 03:00:53;;;;;;;2.35;1.08;;;;;;;13.20;100.00;98301.47;5019235;28;20029;-50
2023/08/04 03:03:19;;;;;;;4.05;0.95;;;;;;;13.12;100.00;98297.19;5023475;28;20078;-50
2023/08/04 03:05:45;;;;;;;3.35;0.85;;;;;;;13.07;100.00;98297.09;5023462;28;20068;-51
2023/08/04 03:08:10;;;;;;;5.03;0.90;;;;;;;13.04;100.00;98300.25;5035203;28;20013;-51
2023/08/04 03:10:40;;;;;;;3.03;0.85;;;;;;;12.93;100.00;98299.16;5017431;28;20028;-50
2023/08/04 03:13:06;;;;;;;1.17;0.80;;;;;;;12.87;100.00;98302.78;5022603;28;20047;-50
2023/08/04 03:15:31;;;;;;;1.50;0.90;;;;;;;12.84;100.00;98302.44;5030591;28;20036;-51
2023/08/04 03:17:56;;;;;;;1.42;0.80;;;;;;;12.86;100.00;98312.00;5022646;28;20022;-51
2023/08/04 03:20:22;;;;;;;2.63;1.00;;;;;;;12.96;100.00;98316.03;5014061;28;20021;-51
2023/08/04 03:22:48;;;;;;;1.70;0.98;;;;;;;12.92;100.00;98305.66;5017463;28;20060;-51
2023/08/04 03:25:14;;;;;;;3.45;1.00;;;;;;;12.89;100.00;98307.97;5027353;28;20036;-51
2023/08/04 03:27:39;;;;;;;5.38;1.02;;;;;;;12.91;100.00;98319.44;5017206;28;20033;-50
2023/08/04 03:30:05;;;;;;;3.65;1.10;;;;;;;12.97;100.00;98304.97;5016988;28;20021;-50
2023/08/04 03:32:30;;;;;;;1.88;0.70;;;;;;;13.05;100.00;98311.97;5020893;28;20064;-51
2023/08/04 03:34:56;;;;;;;2.95;1.10;;;;;;;13.15;100.00;98304.03;5029198;28;20022;-51
2023/08/04 03:37:21;;;;;;;3.08;0.80;;;;;;;13.33;100.00;98303.19;5018146;28;20036;-50
2023/08/04 03:39:47;;;;;;;4.90;1.17;;;;;;;13.36;100.00;98306.28;5027184;28;20028;-50
2023/08/04 03:42:13;;;;;;;1.92;0.75;;;;;;;13.38;100.00;98304.13;5028261;28;20030;-51
2023/08/04 03:44:38;;;;;;;3.47;0.82;;;;;;;13.40;100.00;98303.09;5026528;28;20408;-50
2023/08/04 03:47:04;;;;;;;4.80;0.90;;;;;;;13.43;100.00;98308.03;5025022;28;20112;-51
2023/08/04 03:49:29;;;;;;;1.98;0.80;;;;;;;13.46;100.00;98313.00;5036969;28;20029;-51
2023/08/04 03:51:54;;;;;;;2.50;0.70;;;;;;;13.49;100.00;98312.53;5036115;28;20028;-50
2023/08/04 03:54:20;;;;;;;1.83;0.73;;;;;;;13.53;100.00;98311.00;5022692;28;20032;-51
2023/08/04 03:56:45;;;;;;;3.72;0.70;;;;;;;13.58;100.00;98308.44;5018079;28;20026;-50
2023/08/04 03:59:12;;;;;;;1.48;0.70;;;;;;;13.59;100.00;98310.06;5025930;28;20116;-50
2023/08/04 04:01:38;;;;;;;1.35;0.73;;;;;;;13.62;100.00;98306.88;5020295;28;21086;-51
2023/08/04 04:04:04;;;;;;;2.00;0.90;;;;;;;13.63;100.00;98308.56;5026715;28;20029;-51
2023/08/04 04:06:29;;;;;;;2.53;0.65;;;;;;;13.65;100.00;98308.28;5021605;28;20119;-51
2023/08/04 04:08:54;;;;;;;4.95;0.77;;;;;;;13.67;100.00;98312.44;5022266;28;20435;-50
2023/08/04 04:11:20;;;;;;;3.88;0.80;;;;;;;13.69;100.00;98306.78;5025036;28;20021;-50
2023/08/04 04:13:46;;;;;;;2.00;0.80;;;;;;;13.70;100.00;98306.56;5018905;28;20033;-50
2023/08/04 04:16:11;;;;;;;3.17;0.75;;;;;;;13.75;100.00;98301.25;5024684;28;20413;-51
2023/08/04 04:18:36;;;;;;;1.35;0.50;;;;;;;13.82;100.00;98311.97;5039208;28;20044;-52
2023/08/04 04:21:02;;;;;;;2.00;0.70;;;;;;;13.87;100.00;98303.13;5024227;28;20021;-52
2023/08/04 04:23:28;;;;;;;4.47;1.08;;;;;;;13.91;100.00;98302.41;5017929;28;20087;-50
2023/08/04 04:25:53;;;;;;;1.60;0.70;;;;;;;13.95;100.00;98298.13;5026749;28;20025;-50
2023/08/04 04:28:19;;;;;;;6.22;0.82;;;;;;;14.02;100.00;98304.28;5022221;28;20024;-50
2023/08/04 04:30:45;;;;;;;2.50;0.70;;;;;;;14.06;100.00;98299.19;5020099;28;20108;-50
2023/08/04 04:33:10;;;;;;;2.65;0.85;;;;;;;14.11;100.00;98301.19;5022082;28;20031;-50
2023/08/04 04:35:36;;;;;;;3.10;0.90;;;;;;;14.12;100.00;98311.00;5026193;28;20063;-50
2023/08/04 04:38:01;;;;;;;5.38;0.90;;;;;;;14.14;100.00;98314.31;5026059;28;20029;-50
2023/08/04 04:40:26;;;;;;;2.80;0.90;;;;;;;14.16;100.00;98320.38;5021748;28;20025;-50
2023/08/04 04:42:52;;;;;;;1.95;0.75;;;;;;;14.24;100.00;98320.00;5022368;28;20025;-50
2023/08/04 04:45:17;;;;;;;6.40;1.00;;;;;;;14.32;100.00;98318.78;5026132;28;20101;-50
2023/08/04 04:47:43;;;;;;;2.47;0.88;;;;;;;14.38;100.00;98317.84;5027858;28;20028;-50
2023/08/04 04:50:08;;;;;;;1.42;0.70;;;;;;;14.42;100.00;98319.84;5033244;28;20029;-50
2023/08/04 04:52:35;;;;;;;3.67;1.10;;;;;;;14.51;100.00;98317.56;5023310;28;20048;-49
2023/08/04 04:55:02;;;;;;;2.95;0.95;;;;;;;14.61;100.00;98317.81;5019515;28;20048;-50
2023/08/04 04:57:28;;;;;;;1.92;0.70;;;;;;;14.92;100.00;98323.84;5019466;28;20032;-52
2023/08/04 04:59:53;;;;;;;1.63;0.70;;;;;;;15.18;100.00;98316.97;5017518;28;20514;-52
2023/08/04 05:02:19;;;;;;;1.40;0.70;;;;;;;15.30;100.00;98308.72;5014442;28;20108;-52
2023/08/04 05:04:44;;;;;;;1.98;0.80;;;;;;;15.49;100.00;98310.16;5038327;28;20035;-50
2023/08/04 05:07:10;;;;;;;4.07;0.80;;;;;;;15.67;100.00;98311.81;5028703;28;20016;-50
2023/08/04 05:09:35;;;;;;;2.53;1.10;;;;;;;15.75;100.00;98311.44;5022369;28;20059;-50
2023/08/04 05:12:01;;;;;;;2.60;0.60;;;;;;;15.86;100.00;98309.69;5020680;28;20116;-50
2023/08/04 05:14:26;;;;;;;3.83;0.98;;;;;;;15.97;100.00;98303.28;5022096;28;20032;-50
2023/08/04 05:16:51;;;;;;;1.35;0.55;;;;;;;16.12;100.00;98312.78;5016227;28;20124;-50
2023/08/04 05:19:17;;;;;;;2.00;0.70;;;;;;;16.06;100.00;98305.59;5024224;28;20047;-50
2023/08/04 05:21:42;;;;;;;2.80;0.80;;;;;;;16.02;100.00;98299.81;5033699;28;20025;-50
2023/08/04 05:24:08;;;;;;;2.80;0.50;;;;;;;16.00;100.00;98308.25;5027004;28;20475;-50
2023/08/04 05:26:33;;;;;;;5.28;0.80;;;;;;;16.06;100.00;98301.00;5026521;28;20498;-50
2023/08/04 05:28:59;;;;;;;2.33;0.68;;;;;;;16.12;100.00;98296.41;5014557;28;20028;-50
2023/08/04 05:31:24;;;;;;;2.45;0.88;;;;;;;16.28;100.00;98305.66;5024014;28;20021;-50
2023/08/04 05:33:50;;;;;;;4.75;1.13;;;;;;;16.46;100.00;98304.50;5022307;28;20025;-50
2023/08/04 05:36:15;;;;;;;2.42;0.85;;;;;;;16.59;100.00;98301.41;5028611;28;20028;-50
2023/08/04 05:38:41;;;;;;;1.85;0.70;;;;;;;16.61;100.00;98300.06;5032620;28;20391;-50
2023/08/04 05:41:06;;;;;;;2.67;0.65;;;;;;;16.76;100.00;98293.13;5021364;28;20021;-50
2023/08/04 05:43:32;;;;;;;5.88;0.90;;;;;;;16.84;100.00;98301.69;5025246;28;20499;-50
2023/08/04 05:46:02;;;;;;;1.80;0.90;;;;;;;17.12;100.00;98302.56;5038662;28;20090;-50
2023/08/04 05:48:32;;;;;;;2.53;0.68;;;;;;;17.36;100.00;98300.31;5021988;28;20465;-50
2023/08/04 05:50:57;;;;;;;0.70;0.50;;;;;;;17.56;100.00;98290.66;5067496;22;20485;-83
2023/08/04 05:53:23;;;;;;;4.85;0.70;;;;;;;17.71;100.00;98283.38;5058663;28;20139;-81
2023/08/04 05:55:48;;;;;;;1.40;0.63;;;;;;;17.87;100.00;98281.59;5054183;28;20489;-84
2023/08/04 05:58:13;;;;;;;1.27;0.47;;;;;;;18.03;100.00;98274.31;5061983;28;20044;-80
2023/08/04 06:00:38;;;;;;;3.22;0.68;;;;;;;18.31;100.00;98289.53;5050608;28;20036;-76
2023/08/04 06:03:04;;;;;;;2.67;0.68;;;;;;;18.34;100.00;98293.66;5053119;28;20028;-79
2023/08/04 06:05:30;;;;;;;2.80;0.60;;;;;;;18.44;100.00;98292.84;5066149;28;20037;-78
2023/08/04 06:07:55;;;;;;;1.95;0.60;;;;;;;18.77;100.00;98295.22;5062047;28;20059;-78
2023/08/04 06:10:21;;;;;;;2.28;0.55;;;;;;;18.52;100.00;98289.59;5073887;28;20020;-77
2023/08/04 06:12:50;;;;;;;1.33;0.40;;;;;;;18.90;100.00;98293.88;5070570;28;20060;-77
2023/08/04 06:15:16;;;;;;;1.77;0.77;;;;;;;18.87;100.00;98299.91;5070605;28;20389;-77
2023/08/04 06:17:42;;;;;;;1.88;0.47;;;;;;;19.22;100.00;98303.81;5053993;28;20027;-74
2023/08/04 06:20:08;;;;;;;0.98;0.32;;;;;;;19.60;100.00;98291.50;5073803;28;20053;-80
2023/08/04 06:22:34;;;;;;;1.90;0.50;;;;;;;20.01;100.00;98293.41;5078439;28;20028;-84
2023/08/04 06:25:00;;;;;;;2.22;0.60;;;;;;;20.39;100.00;98271.91;5075585;28;20024;-83
2023/08/04 06:27:25;;;;;;;0.70;0.55;;;;;;;20.75;100.00;98280.81;5061800;28;20051;-81
2023/08/04 06:29:50;;;;;;;3.65;0.70;;;;;;;20.42;100.00;98274.09;5056735;28;20017;-79
2023/08/04 06:32:16;;;;;;;2.85;0.60;;;;;;;20.29;100.00;98253.53;5057124;28;20052;-78
2023/08/04 06:34:41;;;;;;;3.22;0.60;;;;;;;20.34;100.00;98295.53;5060937;28;20024;-77
2023/08/04 06:37:06;;;;;;;2.20;0.70;;;;;;;20.33;100.00;98293.91;5066037;28;20024;-75
2023/08/04 06:39:32;;;;;;;1.02;0.70;;;;;;;20.36;100.00;98301.56;5078114;28;20040;-76
2023/08/04 06:41:57;;;;;;;3.55;0.98;;;;;;;21.09;100.00;98294.69;5058526;28;20029;-74
2023/08/04 06:44:22;;;;;;;2.47;0.60;;;;;;;21.59;100.00;98291.88;5070292;28;20035;-72
2023/08/04 06:46:48;;;;;;;3.90;0.70;;;;;;;22.02;100.00;98301.13;5066145;28;20032;-80
2023/08/04 06:49:13;;;;;;;3.88;0.57;;;;;;;22.71;100.00;98296.22;5068898;28;20036;-77
2023/08/04 06:51:38;;;;;;;1.15;0.50;;;;;;;23.07;100.00;98308.78;5056300;28;20029;-76
2023/08/04 06:54:04;;;;;;;1.00;0.50;;;;;;;23.27;100.00;98305.72;5069481;28;20103;-81
2023/08/04 06:56:29;;;;;;;1.40;0.60;;;;;;;23.23;100.00;98306.59;5061030;28;20033;-81
2023/08/04 06:58:54;;;;;;;5.28;0.98;;;;;;;23.34;100.00;98292.38;5067129;28;20040;-82
2023/08/04 07:01:20;;;;;;;3.38;0.60;;;;;;;22.81;100.00;98289.75;5069094;28;20060;-76
2023/08/04 07:03:47;;;;;;;4.05;0.50;;;;;;;23.32;100.00;98291.84;5075140;28;20020;-75
2023/08/04 07:06:12;;;;;;;1.17;0.40;;;;;;;23.47;100.00;98298.25;5053457;28;20020;-81
2023/08/04 07:08:38;;;;;;;2.83;0.95;;;;;;;23.24;100.00;98298.03;5067023;28;20032;-79
2023/08/04 07:11:03;;;;;;;3.42;0.50;;;;;;;22.95;100.00;98298.13;5053213;28;20036;-82
2023/08/04 07:13:29;;;;;;;3.30;0.60;;;;;;;22.72;100.00;98297.06;5061742;28;20040;-83
2023/08/04 07:15:58;;;;;;;1.15;0.35;;;;;;;22.59;100.00;98304.13;5065784;28;20033;-81
2023/08/04 07:18:24;;;;;;;;;;;;;;;22.56;100.00;98306.63;5051729;28;20036;-73
2023/08/04 07:20:49;;;;;;;1.47;0.40;;;;;;;22.89;100.00;98308.41;5069844;28;19917;-73
2023/08/04 07:23:14;;;;;;;1.65;0.40;;;;;;;22.35;100.00;98304.13;5064935;28;20274;-79
2023/08/04 07:25:40;;;;;;;1.35;0.50;;;;;;;22.62;100.00;98311.81;5056864;28;20084;-76
2023/08/04 07:28:05;;;;;;;1.55;0.47;;;;;;;23.58;100.00;98289.50;5067349;28;20027;-78
2023/08/04 07:30:32;;;;;;;2.50;0.50;;;;;;;23.97;100.00;98309.59;5063826;28;20072;-70
2023/08/04 07:32:58;;;;;;;2.25;0.40;;;;;;;24.33;100.00;98303.41;5071509;28;20020;-78
2023/08/04 07:35:23;;;;;;;3.22;0.40;;;;;;;24.48;100.00;98314.22;5056261;28;20035;-87
2023/08/04 07:37:48;;;;;;;2.92;0.40;;;;;;;24.38;100.00;98303.31;5053567;28;20474;-80
2023/08/04 07:40:14;;;;;;;1.10;0.30;;;;;;;24.12;100.00;98291.91;5056435;28;20029;-80
2023/08/04 07:42:39;;;;;;;1.55;0.40;;;;;;;23.23;100.00;98312.13;5043886;28;20126;-80
2023/08/04 07:45:05;;;;;;;3.65;0.70;;;;;;;23.16;100.00;98306.97;5055247;28;20111;-76
2023/08/04 07:47:30;;;;;;;1.20;0.45;;;;;;;23.01;100.00;98316.31;5045186;28;20021;-78
2023/08/04 07:49:55;;;;;;;1.13;0.40;;;;;;;22.42;100.00;98306.53;5051541;28;20052;-78
2023/08/04 07:52:21;;;;;;;0.30;0.20;;;;;;;22.54;100.00;98326.25;5048925;28;20490;-77
2023/08/04 07:54:46;;;;;;;2.97;0.50;;;;;;;22.37;100.00;98332.19;5041520;28;20025;-75
2023/08/04 07:57:11;;;;;;;2.55;0.47;;;;;;;22.41;100.00;98313.97;5059305;28;20481;-79
2023/08/04 07:59:36;;;;;;;1.63;0.50;;;;;;;22.36;100.00;98315.97;5067075;28;20081;-75
2023/08/04 08:02:02;;;;;;;1.13;0.55;;;;;;;22.31;100.00;98308.56;5073982;28;20429;-81
2023/08/04 08:04:27;;;;;;;1.17;0.40;;;;;;;22.67;100.00;98338.50;5049952;28;20024;-81
2023/08/04 08:06:52;;;;;;;1.70;0.60;;;;;;;23.02;100.00;98315.19;5043461;28;20502;-83
2023/08/04 08:09:18;;;;;;;1.65;0.40;;;;;;;23.15;100.00;98336.50;5038904;28;20029;-80
2023/08/04 08:11:43;;;;;;;3.17;0.60;;;;;;;23.14;100.00;98320.28;5035568;28;20457;-75
2023/08/04 08:14:08;;;;;;;4.20;0.75;;;;;;;22.90;100.00;98332.16;5069531;28;20024;-79
2023/08/04 08:16:34;;;;;;;1.45;0.40;;;;;;;23.04;100.00;98329.50;5039058;28;20036;-76
2023/08/04 08:19:01;;;;;;;1.83;0.40;;;;;;;22.88;100.00;98339.88;5067403;28;20017;-74
2023/08/04 08:21:26;;;;;;;1.27;0.40;;;;;;;22.73;100.00;98340.06;5054772;28;20497;-73
2023/08/04 08:23:52;;;;;;;1.35;0.30;;;;;;;23.52;100.00;98345.09;5053610;28;20029;-76
2023/08/04 08:26:17;;;;;;;3.50;0.40;;;;;;;25.05;100.00;98336.00;5058831;28;20078;-74
2023/08/04 08:28:42;;;;;;;1.58;0.47;;;;;;;26.41;100.00;98313.59;5053436;28;20043;-74
2023/08/04 08:31:07;;;;;;;2.20;0.57;;;;;;;26.89;91.11;98334.19;5053643;28;20029;-73
2023/08/04 08:33:33;;;;;;;2.28;0.52;;;;;;;27.71;79.42;98324.16;5058935;28;20438;-74
2023/08/04 08:35:58;;;;;;;2.58;0.50;;;;;;;28.45;79.54;98330.59;5066163;28;20107;-74
2023/08/04 08:38:24;;;;;;;4.60;0.47;;;;;;;30.62;71.39;98325.34;5069138;28;20056;-73
2023/08/04 08:40:49;;;;;;;0.70;0.28;;;;;;;34.86;57.76;98323.63;5063668;28;20023;-74
2023/08/04 08:43:15;;;;;;;4.32;0.43;;;;;;;34.26;52.02;98319.34;5061560;28;20051;-75
2023/08/04 08:45:42;;;;;;;2.67;0.35;;;;;;;33.64;53.36;98312.88;5054945;28;20033;-74
2023/08/04 08:48:08;;;;;;;0.98;0.32;;;;;;;33.77;54.10;98331.22;5054923;28;20069;-72
2023/08/04 08:50:34;;;;;;;1.33;0.38;;;;;;;31.11;54.59;98316.97;5065684;28;20040;-74
2023/08/04 08:53:10;;;;;;;8.60;0.50;;;;;;;29.82;61.22;98323.75;5059973;28;20111;-72
2023/08/04 08:55:36;;;;;;;1.67;0.47;;;;;;;29.22;64.40;98322.22;5054326;28;20025;-74
2023/08/04 08:58:02;;;;;;;1.38;0.32;;;;;;;28.25;69.58;98334.09;5043612;28;20055;-74
2023/08/04 09:00:28;;;;;;;2.25;0.45;;;;;;;27.88;71.88;98325.34;5052447;28;20478;-74
2023/08/04 09:02:54;;;;;;;1.45;0.40;;;;;;;27.11;76.52;98330.47;5056386;28;20033;-74
2023/08/04 09:05:21;;;;;;;1.95;0.50;;;;;;;27.01;85.11;98333.56;5055329;28;20025;-74
2023/08/04 09:07:48;;;;;;;1.85;0.40;;;;;;;26.99;88.76;98345.00;5058428;28;20104;-73
2023/08/04 09:10:13;;;;;;;1.65;0.50;;;;;;;27.47;83.67;98348.88;5064970;28;20048;-73
2023/08/04 09:12:39;;;;;;;1.50;0.30;;;;;;;27.34;82.65;98328.44;5058911;28;20465;-74
2023/08/04 09:15:04;;;;;;;1.77;0.47;;;;;;;27.89;83.00;98338.91;5058202;28;20036;-73
2023/08/04 09:17:35;;;;;;;1.30;0.50;;;;;;;27.73;80.15;98340.53;5058381;28;20017;-73
2023/08/04 09:20:05;;;;;;;3.50;0.30;;;;;;;27.68;77.46;98340.69;5064195;28;20020;-73
2023/08/04 09:22:35;;;;;;;2.03;0.50;;;;;;;28.48;76.43;98341.09;5058084;28;20036;-76
2023/08/04 09:25:02;;;;;;;2.15;0.30;;;;;;;29.04;72.70;98335.41;5057958;28;20075;-74
2023/08/04 09:27:27;;;;;;;0.90;0.20;;;;;;;29.62;73.17;98327.31;5061339;28;20486;-74
2023/08/04 09:29:58;;;;;;;1.23;0.40;;;;;;;30.41;66.94;98324.63;5057240;28;20035;-76
2023/08/04 09:32:24;;;;;;;1.50;0.47;;;;;;;30.96;63.36;98328.88;5059614;28;20020;-76
2023/08/04 09:35:19;;;;;;;1.38;0.20;;;;;;;33.65;57.15;98330.56;5067048;28;20016;-74
2023/08/04 09:37:44;;;;;;;2.13;0.47;;;;;;;36.82;50.43;98319.66;5039109;28;20032;-74
2023/08/04 09:40:18;;;;;;;1.40;0.30;;;;;;;37.22;45.40;98326.41;5061306;28;20023;-73
2023/08/04 09:42:45;;;;;;;1.05;0.30;;;;;;;39.81;43.50;98313.50;5055729;28;20028;-73
2023/08/04 09:45:18;;;;;;;0.40;0.22;;;;;;;39.30;42.12;98318.47;5065833;28;20016;-73
2023/08/04 09:47:48;;;;;;;3.03;0.30;;;;;;;39.11;42.49;98307.59;5063686;28;20036;-74
2023/08/04 09:50:13;;;;;;;1.02;0.30;;;;;;;40.94;39.77;98310.31;5062639;28;20110;-73
2023/08/04 09:52:38;;;;;;;1.02;0.30;;;;;;;39.22;39.75;98311.19;5056881;28;20501;-74
2023/08/04 09:55:08;;;;;;;1.38;0.20;;;;;;;36.27;43.49;98316.72;5061852;28;20025;-73
2023/08/04 09:57:34;;;;;;;0.63;0.20;;;;;;;35.97;44.40;98316.75;5034812;28;20028;-74
2023/08/04 10:00:00;;;;;;;1.45;0.40;;;;;;;37.22;41.28;98309.47;5056973;28;20028;-80
2023/08/04 10:02:25;;;;;;;1.13;0.40;;;;;;;40.33;39.62;98290.16;5044093;28;20969;-77
2023/08/04 10:04:51;;;;;;;2.17;0.50;;;;;;;39.59;39.32;98301.41;5062364;28;20024;-75
2023/08/04 10:07:20;;;;;;;1.42;0.28;;;;;;;38.47;39.05;98299.91;5053021;28;20100;-75
2023/08/04 10:09:49;;;;;;;0.98;0.35;;;;;;;39.47;39.61;98297.00;5039292;28;20133;-75
2023/08/04 10:12:18;;;;;;;1.92;0.38;;;;;;;37.71;41.54;98299.69;5061819;28;20157;-75
2023/08/04 10:14:44;;;;;;;1.10;0.30;;;;;;;37.24;41.07;98292.16;5038637;28;20032;-75
2023/08/04 10:17:10;;;;;;;0.80;0.32;;;;;;;39.38;39.92;98290.97;5053177;28;20060;-75
2023/08/04 10:19:36;;;;;;;0.50;0.30;;;;;;;42.14;37.17;98291.53;5066409;28;20009;-80
2023/08/04 10:22:09;;;;;;;1.40;0.20;;;;;;;43.28;36.21;98295.34;5065184;28;20028;-80
2023/08/04 10:24:36;;;;;;;0.63;0.30;;;;;;;44.52;34.23;98283.78;5063695;28;20310;-81
2023/08/04 10:27:11;;;;;;;0.47;0.30;;;;;;;42.44;34.04;98288.66;5047670;28;20087;-80
2023/08/04 10:29:36;;;;;;;0.57;0.30;;;;;;;40.64;35.25;98274.91;5040611;28;20522;-76
2023/08/04 10:32:07;;;;;;;0.77;0.30;;;;;;;37.55;38.29;98290.75;5059618;28;20048;-78
2023/08/04 10:34:37;;;;;;;1.30;0.25;;;;;;;39.50;37.86;98298.22;5063299;28;21628;-74
2023/08/04 10:37:10;;;;;;;0.28;0.10;;;;;;;40.64;36.46;98293.94;5063343;28;20393;-74
2023/08/04 10:39:45;;;;;;;0.82;0.32;;;;;;;42.39;35.59;98291.19;5039755;28;20024;-74
2023/08/04 10:42:30;;;;;;;0.82;0.22;;;;;;;41.11;34.56;98283.84;5055646;28;20962;-73
2023/08/04 10:45:05;;;;;;;0.32;0.20;;;;;;;43.39;35.19;98280.09;5057646;28;20032;-75
2023/08/04 10:47:31;;;;;;;0.70;0.20;;;;;;;41.47;36.40;98280.59;5052368;28;20028;-74
2023/08/04 10:49:58;;;;;;;0.68;0.52;;;;;;;37.80;38.01;98282.34;5059260;28;20029;-75
2023/08/04 10:52:24;;;;;;;1.63;0.30;;;;;;;35.52;42.68;98294.06;5061192;28;20032;-76
2023/08/04 10:54:51;;;;;;;0.77;0.20;;;;;;;32.89;45.60;98299.97;5060244;28;20083;-74
2023/08/04 10:57:23;;;;;;;0.22;0.20;;;;;;;32.41;47.72;98296.31;5066241;28;20029;-76
2023/08/04 10:59:50;;;;;;;2.15;0.20;;;;;;;35.87;45.29;98294.91;5062124;28;20486;-73
2023/08/04 11:02:20;;;;;;;0.55;0.28;;;;;;;39.07;40.25;98292.66;5057637;28;20041;-73
2023/08/04 11:04:46;;;;;;;1.73;0.30;;;;;;;35.60;42.85;98306.25;5065965;28;20047;-82
2023/08/04 11:07:12;;;;;;;1.15;0.20;;;;;;;35.01;44.40;98316.22;5053279;28;20086;-82
2023/08/04 11:09:38;;;;;;;0.38;0.20;;;;;;;34.57;45.82;98305.44;5059471;28;20023;-80
2023/08/04 11:12:08;;;;;;;0.20;0.17;;;;;;;34.03;46.74;98308.09;5057288;28;20116;-83
2023/08/04 11:14:35;;;;;;;0.35;0.20;;;;;;;33.43;48.40;98320.81;5054456;28;20059;-83
2023/08/04 11:17:01;;;;;;;0.93;0.40;;;;;;;32.85;48.70;98327.06;5048170;28;20050;-86
2023/08/04 11:19:28;;;;;;;1.17;0.20;;;;;;;32.37;51.05;98320.63;5056729;28;20153;-79
2023/08/04 11:21:54;;;;;;;1.95;0.20;;;;;;;31.03;53.00;98286.38;5073200;28;20020;-82